Time;durP1;ratioP1;P1;durP2;ratioP2;P2;SDS_P1;SDS_P2;PMS_P1;PMS_P2;Temp;Humidity;BMP_temperature;BMP_pressure;BME280_temperature;BME280_humidity;BME280_pressure;Samples;Min_cycle;Max_cycle;Signal;HPM_P1;HPM_P2
2023/07/29 00:00:42;;;;;;;5.80;5.30;;;;;;;17.26;100.00;101045.94;4976986;28;20903;-69
2023/07/29 00:03:08;;;;;;;5.37;4.80;;;;;;;17.35;100.00;101030.94;4978039;28;20281;-69
2023/07/29 00:05:33;;;;;;;4.60;4.20;;;;;;;17.32;100.00;101023.28;4973496;28;20528;-69
2023/07/29 00:07:59;;;;;;;4.90;4.13;;;;;;;17.46;100.00;101066.41;4962916;28;20456;-69
2023/07/29 00:10:25;;;;;;;5.80;5.23;;;;;;;17.38;100.00;101041.31;4969976;28;20206;-70
2023/07/29 00:12:51;;;;;;;6.30;4.80;;;;;;;17.32;100.00;101015.16;4970687;28;20560;-69
2023/07/29 00:15:16;;;;;;;6.00;4.90;;;;;;;17.33;100.00;101046.63;4970758;28;20447;-70
2023/07/29 00:17:42;;;;;;;8.63;4.80;;;;;;;17.66;100.00;101068.72;4972812;28;20212;-70
2023/07/29 00:20:08;;;;;;;5.73;5.13;;;;;;;17.33;100.00;101043.09;4973345;28;21193;-69
2023/07/29 00:22:33;;;;;;;7.43;5.27;;;;;;;17.62;100.00;101068.41;4975532;28;20188;-69
2023/07/29 00:24:59;;;;;;;6.53;5.93;;;;;;;17.44;100.00;101073.97;4977332;28;20629;-69
2023/07/29 00:27:25;;;;;;;9.80;5.27;;;;;;;17.29;100.00;101021.06;4981977;28;20225;-70
2023/07/29 00:29:51;;;;;;;6.03;5.03;;;;;;;17.45;100.00;101029.53;4977664;28;20580;-69
2023/07/29 00:32:16;;;;;;;5.90;5.23;;;;;;;17.63;100.00;101062.72;4972257;28;20473;-69
2023/07/29 00:34:42;;;;;;;6.40;5.60;;;;;;;17.61;100.00;101061.28;4976509;28;20336;-69
2023/07/29 00:37:07;;;;;;;5.60;5.00;;;;;;;17.76;100.00;101058.91;4964303;28;20209;-70
2023/07/29 00:39:33;;;;;;;5.80;5.30;;;;;;;17.74;100.00;101065.66;4974781;28;20193;-69
2023/07/29 00:41:59;;;;;;;6.47;5.50;;;;;;;17.40;100.00;101033.75;4975041;28;20635;-69
2023/07/29 00:44:24;;;;;;;9.57;6.20;;;;;;;17.50;100.00;101022.31;4972247;28;20189;-69
2023/07/29 00:46:52;;;;;;;6.00;5.40;;;;;;;17.81;100.00;101072.59;4980974;28;20441;-69
2023/07/29 00:49:18;;;;;;;7.37;6.67;;;;;;;17.52;100.00;101051.91;4974975;28;20194;-69
2023/07/29 00:51:43;;;;;;;6.73;6.03;;;;;;;17.63;100.00;101064.59;4973540;28;20904;-69
2023/07/29 00:54:09;;;;;;;6.67;5.97;;;;;;;17.60;100.00;101046.09;4974820;28;21184;-69
2023/07/29 00:56:35;;;;;;;7.27;5.93;;;;;;;17.79;100.00;101052.19;4976266;28;20221;-69
2023/07/29 00:59:01;;;;;;;7.27;6.57;;;;;;;17.66;100.00;101047.03;4972015;28;20219;-70
2023/07/29 01:01:31;;;;;;;8.07;6.60;;;;;;;17.52;100.00;101030.19;4979985;28;20445;-69
2023/07/29 01:03:57;;;;;;;6.27;5.70;;;;;;;17.57;100.00;101024.88;4973389;28;20445;-70
2023/07/29 01:06:39;;;;;;;7.40;6.30;;;;;;;17.37;100.00;101028.81;4972941;28;20460;-69
2023/07/29 01:09:12;;;;;;;7.30;6.57;;;;;;;17.44;100.00;101022.44;4968740;28;20445;-70
2023/07/29 01:11:37;;;;;;;7.97;6.27;;;;;;;17.78;100.00;101070.34;4972355;28;20967;-69
2023/07/29 01:14:21;;;;;;;6.90;6.20;;;;;;;17.63;100.00;101045.63;4972659;28;20443;-69
2023/07/29 01:17:02;;;;;;;7.40;6.70;;;;;;;17.81;100.00;101072.59;4973083;28;20272;-69
2023/07/29 01:20:14;;;;;;;7.63;6.93;;;;;;;17.63;100.00;101080.88;4973180;28;20449;-69
2023/07/29 01:22:40;;;;;;;9.67;7.77;;;;;;;17.40;100.00;101027.53;4974109;28;20499;-70
2023/07/29 01:25:06;;;;;;;8.80;7.70;;;;;;;17.65;100.00;101073.34;4974476;28;20927;-71
2023/07/29 01:27:31;;;;;;;7.77;6.97;;;;;;;17.40;100.00;101022.09;4973224;28;20205;-70
2023/07/29 01:29:58;;;;;;;8.13;7.00;;;;;;;17.05;100.00;100959.84;4974173;28;20654;-70
2023/07/29 01:32:35;;;;;;;7.37;6.60;;;;;;;17.75;100.00;101064.56;4975592;28;20187;-70
2023/07/29 01:35:24;;;;;;;8.23;6.60;;;;;;;17.89;100.00;101079.53;4976489;28;20472;-70
2023/07/29 01:37:55;;;;;;;6.60;5.90;;;;;;;17.91;100.00;101080.13;4970485;28;20524;-70
2023/07/29 01:40:23;;;;;;;7.33;6.17;;;;;;;17.80;100.00;101053.84;4970874;28;20475;-70
2023/07/29 01:42:49;;;;;;;7.97;6.20;;;;;;;17.86;100.00;101085.44;4971142;28;20790;-70
2023/07/29 01:45:15;;;;;;;7.17;6.10;;;;;;;17.94;100.00;101081.53;4979338;28;20468;-70
2023/07/29 01:47:41;;;;;;;8.13;6.90;;;;;;;17.83;100.00;101092.19;4970442;28;20237;-70
2023/07/29 01:50:07;;;;;;;9.50;7.30;;;;;;;17.72;100.00;101065.06;4973000;28;20435;-70
2023/07/29 01:52:33;;;;;;;7.00;6.30;;;;;;;17.87;100.00;101078.94;4974259;28;20540;-70
2023/07/29 01:54:58;;;;;;;7.17;6.30;;;;;;;17.92;100.00;101075.50;4971896;28;20492;-71
2023/07/29 01:57:24;;;;;;;9.20;6.83;;;;;;;17.86;100.00;101061.03;4974146;28;20233;-70
2023/07/29 01:59:49;;;;;;;8.57;7.00;;;;;;;17.73;100.00;101062.06;4972706;28;20759;-70
2023/07/29 02:02:15;;;;;;;8.37;7.47;;;;;;;17.12;100.00;100968.66;4971213;28;20193;-70
2023/07/29 02:04:40;;;;;;;10.43;7.80;;;;;;;17.82;100.00;101078.88;4968888;28;20189;-69
2023/07/29 02:07:05;;;;;;;10.97;8.30;;;;;;;17.88;100.00;101083.31;4972782;28;20210;-70
2023/07/29 02:09:31;;;;;;;9.43;7.63;;;;;;;17.64;100.00;101047.25;4969563;28;20195;-70
2023/07/29 02:11:58;;;;;;;11.23;9.20;;;;;;;17.78;100.00;101094.78;4969331;28;20206;-70
2023/07/29 02:14:23;;;;;;;10.53;8.10;;;;;;;17.57;100.00;101047.41;4968652;28;20189;-70
2023/07/29 02:16:49;;;;;;;9.57;8.60;;;;;;;17.73;100.00;101088.38;4969583;28;21148;-70
2023/07/29 02:19:15;;;;;;;9.77;8.73;;;;;;;17.78;100.00;101086.63;4972324;28;20256;-70
2023/07/29 02:21:40;;;;;;;9.77;7.77;;;;;;;17.63;100.00;101070.03;4967167;28;20922;-70
2023/07/29 02:24:06;;;;;;;9.97;8.53;;;;;;;17.68;100.00;101101.88;4970332;28;20276;-69
2023/07/29 02:26:31;;;;;;;11.27;7.27;;;;;;;17.60;100.00;101078.66;4966869;28;20583;-70
2023/07/29 02:28:57;;;;;;;10.10;9.05;;;;;;;17.69;100.00;101090.78;4966292;28;20217;-70
2023/07/29 02:31:24;;;;;;;10.90;8.00;;;;;;;17.69;100.00;101077.19;4974626;28;20499;-70
2023/07/29 02:33:49;;;;;;;8.80;7.90;;;;;;;17.68;100.00;101094.56;4980832;28;20227;-69
2023/07/29 02:36:16;;;;;;;10.73;6.73;;;;;;;17.70;100.00;101091.59;4968093;28;20448;-70
2023/07/29 02:38:42;;;;;;;7.93;7.13;;;;;;;17.62;100.00;101081.94;4967547;28;20210;-70
2023/07/29 02:41:12;;;;;;;10.77;8.17;;;;;;;17.60;100.00;101090.31;4970860;28;20500;-70
2023/07/29 02:43:37;;;;;;;8.67;7.80;;;;;;;17.01;100.00;100997.44;4967011;28;20194;-69
2023/07/29 02:46:03;;;;;;;8.80;7.30;;;;;;;17.66;100.00;101095.84;4969276;28;21022;-70
2023/07/29 02:48:28;;;;;;;8.83;7.07;;;;;;;17.54;100.00;101088.56;4970836;28;20540;-70
2023/07/29 02:50:54;;;;;;;9.90;8.20;;;;;;;17.31;100.00;101070.44;4969528;28;20371;-70
2023/07/29 02:53:21;;;;;;;8.30;6.87;;;;;;;16.76;100.00;100967.88;4969548;28;20289;-70
2023/07/29 02:55:47;;;;;;;10.67;7.10;;;;;;;17.41;100.00;101075.25;4968636;28;20447;-71
2023/07/29 02:58:12;;;;;;;9.50;6.90;;;;;;;17.13;100.00;101008.25;4967752;28;20465;-69
2023/07/29 03:00:40;;;;;;;9.83;7.83;;;;;;;17.02;100.00;101014.50;4973124;28;20190;-69
2023/07/29 03:03:05;;;;;;;9.70;8.70;;;;;;;17.39;100.00;101088.25;4970605;28;20193;-70
2023/07/29 03:05:31;;;;;;;9.30;7.63;;;;;;;17.17;100.00;101039.22;4972474;28;20457;-70
2023/07/29 03:07:57;;;;;;;10.43;7.60;;;;;;;17.26;100.00;101059.47;4969585;28;20217;-70
2023/07/29 03:10:23;;;;;;;9.80;7.10;;;;;;;17.35;100.00;101071.59;4971462;28;20883;-70
2023/07/29 03:12:48;;;;;;;9.50;8.50;;;;;;;17.45;100.00;101087.28;4970745;28;20563;-70
2023/07/29 03:15:14;;;;;;;8.10;7.30;;;;;;;17.31;100.00;101084.00;4971203;28;20894;-70
2023/07/29 03:17:39;;;;;;;7.17;6.47;;;;;;;17.40;100.00;101087.16;4969623;28;20206;-70
2023/07/29 03:20:05;;;;;;;8.10;6.83;;;;;;;17.08;100.00;101063.16;4971458;28;20197;-70
2023/07/29 03:22:31;;;;;;;12.03;7.93;;;;;;;17.24;100.00;101088.72;4971120;28;20186;-69
2023/07/29 03:24:56;;;;;;;8.63;7.37;;;;;;;17.12;100.00;101077.88;4970720;28;20790;-70
2023/07/29 03:27:22;;;;;;;8.40;7.50;;;;;;;17.23;100.00;101087.06;4971757;28;20694;-70
2023/07/29 03:29:47;;;;;;;8.83;7.13;;;;;;;17.16;100.00;101092.63;4971123;28;20205;-70
2023/07/29 03:32:12;;;;;;;9.67;7.93;;;;;;;17.22;100.00;101090.03;4969788;28;20222;-69
2023/07/29 03:34:40;;;;;;;7.63;6.80;;;;;;;17.32;100.00;101091.06;4968167;28;20221;-70
2023/07/29 03:37:05;;;;;;;7.60;6.37;;;;;;;17.33;100.00;101091.91;4970210;28;20706;-69
2023/07/29 03:39:31;;;;;;;6.90;6.20;;;;;;;17.33;100.00;101089.19;4967773;28;20448;-70
2023/07/29 03:41:57;;;;;;;8.40;7.10;;;;;;;17.08;100.00;101067.75;4973717;28;20566;-70
2023/07/29 03:44:22;;;;;;;8.83;6.43;;;;;;;16.79;100.00;101031.59;4973302;28;20445;-70
2023/07/29 03:46:48;;;;;;;8.47;7.60;;;;;;;16.83;100.00;101036.28;4971426;28;20205;-70
2023/07/29 03:49:13;;;;;;;8.43;7.53;;;;;;;16.78;100.00;101038.91;4976820;28;20197;-69
2023/07/29 03:51:39;;;;;;;8.90;6.93;;;;;;;16.91;100.00;101054.09;4976092;28;20229;-71
2023/07/29 03:54:04;;;;;;;8.30;6.60;;;;;;;16.89;100.00;101040.78;4976525;28;20220;-70
2023/07/29 03:56:30;;;;;;;8.20;6.77;;;;;;;16.77;100.00;101017.44;4976772;28;20209;-70
2023/07/29 03:59:03;;;;;;;9.50;7.00;;;;;;;17.04;100.00;101067.41;4976365;28;20202;-70
2023/07/29 04:01:28;;;;;;;12.70;7.23;;;;;;;17.16;100.00;101076.34;4976857;28;20189;-70
2023/07/29 04:03:54;;;;;;;7.20;6.30;;;;;;;17.06;100.00;101040.06;4976483;28;20824;-69
2023/07/29 04:06:20;;;;;;;9.63;5.80;;;;;;;17.12;100.00;101079.75;4972368;28;20567;-71
2023/07/29 04:08:46;;;;;;;7.30;6.13;;;;;;;17.07;100.00;101058.00;4975185;28;20576;-70
2023/07/29 04:11:11;;;;;;;5.87;5.23;;;;;;;17.19;100.00;101068.81;4976738;28;20556;-70
2023/07/29 04:13:37;;;;;;;7.07;5.20;;;;;;;17.29;100.00;101064.44;4973468;28;20229;-70
2023/07/29 04:16:04;;;;;;;8.70;6.53;;;;;;;16.86;100.00;101027.69;4973861;28;20195;-71
2023/07/29 04:18:29;;;;;;;6.90;5.53;;;;;;;17.14;100.00;101073.06;4976468;28;20797;-70
2023/07/29 04:20:55;;;;;;;7.57;6.53;;;;;;;17.10;100.00;101068.34;4974699;28;20523;-70
2023/07/29 04:23:20;;;;;;;8.33;6.40;;;;;;;17.17;100.00;101072.56;4973336;28;20193;-71
2023/07/29 04:25:46;;;;;;;8.00;6.20;;;;;;;16.91;100.00;101035.94;4975380;28;20202;-70
2023/07/29 04:28:11;;;;;;;8.00;5.93;;;;;;;17.03;100.00;101075.75;4975316;28;20221;-70
2023/07/29 04:30:37;;;;;;;8.27;6.63;;;;;;;16.99;100.00;101052.91;4974606;28;20214;-71
2023/07/29 04:33:02;;;;;;;7.60;6.53;;;;;;;17.04;100.00;101063.84;4974973;28;20209;-70
2023/07/29 04:35:28;;;;;;;6.17;5.57;;;;;;;17.08;100.00;101089.44;4975720;28;20265;-70
2023/07/29 04:37:53;;;;;;;7.77;6.23;;;;;;;17.09;100.00;101066.69;4983870;28;21192;-69
2023/07/29 04:40:19;;;;;;;7.57;5.70;;;;;;;17.12;100.00;101077.06;4969481;28;20795;-70
2023/07/29 04:42:44;;;;;;;7.27;5.80;;;;;;;17.04;100.00;101075.53;4972707;28;20630;-70
2023/07/29 04:45:10;;;;;;;6.23;5.10;;;;;;;16.11;100.00;100903.78;4969860;28;21052;-69
2023/07/29 04:47:35;;;;;;;6.00;5.20;;;;;;;17.04;100.00;101058.44;4970688;28;20323;-70
2023/07/29 04:50:01;;;;;;;7.83;6.00;;;;;;;16.77;100.00;101020.16;4970647;28;21036;-71
2023/07/29 04:52:26;;;;;;;6.17;5.57;;;;;;;17.13;100.00;101021.81;4970685;28;20663;-69
2023/07/29 04:54:52;;;;;;;7.47;5.60;;;;;;;16.94;100.00;101032.75;4974926;28;20225;-71
2023/07/29 04:57:17;;;;;;;8.53;5.77;;;;;;;17.37;100.00;101069.50;4971591;28;20214;-71
2023/07/29 04:59:43;;;;;;;8.93;5.57;;;;;;;17.12;100.00;101041.81;4980128;28;20767;-69
2023/07/29 05:02:08;;;;;;;9.60;5.90;;;;;;;17.28;100.00;101064.69;4971124;28;20196;-70
2023/07/29 05:04:33;;;;;;;9.00;5.60;;;;;;;17.40;100.00;101073.63;4985149;28;20193;-70
2023/07/29 05:06:59;;;;;;;6.20;5.20;;;;;;;17.39;100.00;101069.25;4976263;28;20209;-70
2023/07/29 05:09:25;;;;;;;8.63;6.40;;;;;;;17.10;100.00;101062.94;4970850;28;20198;-70
2023/07/29 05:11:51;;;;;;;9.50;6.70;;;;;;;16.99;100.00;101040.19;4980789;28;20218;-70
2023/07/29 05:14:17;;;;;;;9.00;5.70;;;;;;;17.13;100.00;101057.03;4979548;28;20433;-69
2023/07/29 05:16:43;;;;;;;6.17;5.43;;;;;;;17.30;100.00;101071.50;4967696;28;20305;-70
2023/07/29 05:19:09;;;;;;;8.20;6.53;;;;;;;17.31;100.00;101073.16;4972995;28;20438;-70
2023/07/29 05:21:35;;;;;;;6.77;5.97;;;;;;;17.21;100.00;101081.03;4974264;28;20459;-70
2023/07/29 05:24:00;;;;;;;8.63;6.20;;;;;;;17.14;100.00;101051.38;4979897;28;20186;-69
2023/07/29 05:26:26;;;;;;;8.53;6.30;;;;;;;16.97;100.00;101030.66;4975512;28;20468;-70
2023/07/29 05:28:51;;;;;;;6.80;5.90;;;;;;;17.30;100.00;101071.50;4974424;28;20213;-72
2023/07/29 05:31:17;;;;;;;8.20;5.03;;;;;;;17.37;100.00;101072.19;4977223;28;20283;-70
2023/07/29 05:33:43;;;;;;;6.03;5.40;;;;;;;17.30;100.00;101071.50;4976924;28;20192;-70
2023/07/29 05:36:08;;;;;;;6.07;4.50;;;;;;;17.47;100.00;101076.19;4975513;28;20429;-71
2023/07/29 05:38:34;;;;;;;8.03;5.30;;;;;;;17.28;100.00;101067.41;4974992;28;20350;-70
2023/07/29 05:41:00;;;;;;;8.27;5.60;;;;;;;17.03;100.00;101024.28;4975806;28;20213;-70
2023/07/29 05:43:26;;;;;;;6.13;4.77;;;;;;;17.31;100.00;101032.50;4974217;28;20261;-70
2023/07/29 05:45:51;;;;;;;8.70;4.50;;;;;;;17.40;100.00;101069.00;4979287;28;20433;-70
2023/07/29 05:48:18;;;;;;;4.80;3.70;;;;;;;17.55;100.00;101070.41;4980715;28;20206;-70
2023/07/29 05:50:43;;;;;;;5.80;4.60;;;;;;;17.65;100.00;101069.78;4971703;28;20362;-70
2023/07/29 05:53:09;;;;;;;5.53;3.67;;;;;;;17.51;100.00;101061.91;4971417;28;20460;-70
2023/07/29 05:55:34;;;;;;;3.93;3.07;;;;;;;17.59;100.00;101063.44;4972215;28;20204;-70
2023/07/29 05:58:00;;;;;;;5.67;3.50;;;;;;;17.45;100.00;101045.78;4971673;28;20220;-69
2023/07/29 06:00:25;;;;;;;4.73;2.80;;;;;;;17.51;100.00;101061.91;4972703;28;20190;-71
2023/07/29 06:02:51;;;;;;;5.30;3.20;;;;;;;17.53;100.00;101054.38;4978346;28;20194;-70
2023/07/29 06:05:16;;;;;;;4.60;2.80;;;;;;;17.56;100.00;101048.47;4976087;28;20568;-70
2023/07/29 06:07:44;;;;;;;4.70;2.73;;;;;;;17.62;100.00;101052.94;4975824;28;20213;-70
2023/07/29 06:10:17;;;;;;;4.57;2.60;;;;;;;17.57;100.00;101047.41;4972973;28;20260;-69
2023/07/29 06:12:43;;;;;;;4.80;2.67;;;;;;;17.60;100.00;101030.66;4972640;28;20445;-70
2023/07/29 06:15:09;;;;;;;4.87;3.00;;;;;;;17.63;100.00;101026.63;4978700;28;20441;-70
2023/07/29 06:17:34;;;;;;;5.70;3.50;;;;;;;17.64;100.00;101025.56;4977478;28;20501;-69
2023/07/29 06:20:00;;;;;;;5.00;3.40;;;;;;;17.46;100.00;101009.47;4971227;28;20641;-71
2023/07/29 06:22:25;;;;;;;4.00;3.50;;;;;;;17.43;100.00;100999.94;4972065;28;20585;-70
2023/07/29 06:24:51;;;;;;;4.27;3.10;;;;;;;17.77;100.00;101013.63;4977737;28;20194;-69
2023/07/29 06:27:16;;;;;;;5.43;3.33;;;;;;;17.65;100.00;101013.66;4973300;28;20216;-70
2023/07/29 06:29:41;;;;;;;3.60;2.87;;;;;;;16.97;100.00;100914.97;4982027;28;20197;-70
2023/07/29 06:32:07;;;;;;;5.60;3.30;;;;;;;17.52;100.00;101008.50;4981056;28;20206;-70
2023/07/29 06:34:32;;;;;;;4.80;3.10;;;;;;;17.63;100.00;100997.63;4975425;28;20189;-70
2023/07/29 06:36:58;;;;;;;3.60;2.70;;;;;;;17.61;100.00;100971.78;4973691;28;21150;-70
2023/07/29 06:39:23;;;;;;;4.87;2.70;;;;;;;17.60;100.00;100994.56;4975196;28;20251;-70
2023/07/29 06:41:49;;;;;;;3.30;2.80;;;;;;;17.58;100.00;100980.41;4981008;28;20363;-70
2023/07/29 06:44:14;;;;;;;4.27;2.30;;;;;;;17.25;100.00;100941.28;4974884;28;20194;-71
2023/07/29 06:46:40;;;;;;;3.83;2.33;;;;;;;17.64;100.00;100998.44;4974473;28;20190;-70
2023/07/29 06:49:05;;;;;;;6.07;3.47;;;;;;;17.58;100.00;101000.22;4973163;28;20213;-70
2023/07/29 06:51:34;;;;;;;4.57;2.90;;;;;;;17.52;100.00;100993.06;4972392;28;20288;-70
2023/07/29 06:53:59;;;;;;;4.10;2.83;;;;;;;17.64;100.00;101003.84;4971331;28;20193;-70
2023/07/29 06:56:25;;;;;;;4.57;3.00;;;;;;;17.48;100.00;100963.97;4970243;28;20444;-70
2023/07/29 06:58:50;;;;;;;4.77;2.50;;;;;;;17.72;100.00;100989.09;4974491;28;20304;-69
2023/07/29 07:01:16;;;;;;;5.87;2.40;;;;;;;17.82;100.00;100989.34;4974398;28;20475;-69
2023/07/29 07:03:41;;;;;;;4.10;2.67;;;;;;;17.89;100.00;100986.47;4974448;28;20219;-70
2023/07/29 07:06:06;;;;;;;3.80;2.00;;;;;;;17.87;100.00;100983.16;4973271;28;20200;-70
2023/07/29 07:08:32;;;;;;;5.63;3.20;;;;;;;17.63;100.00;100954.22;4967942;28;20603;-70
2023/07/29 07:10:57;;;;;;;3.00;2.00;;;;;;;18.06;100.00;100976.44;4971584;28;22355;-71
2023/07/29 07:13:23;;;;;;;4.13;2.50;;;;;;;17.97;100.00;100980.63;4971202;28;20193;-72
2023/07/29 07:15:48;;;;;;;3.73;2.90;;;;;;;17.80;100.00;100958.91;4970270;28;20648;-70
2023/07/29 07:18:13;;;;;;;4.30;2.80;;;;;;;17.62;100.00;100911.06;4968700;28;20271;-70
2023/07/29 07:20:39;;;;;;;3.63;2.30;;;;;;;18.15;100.00;100957.88;4973939;28;20193;-69
2023/07/29 07:23:11;;;;;;;4.13;2.70;;;;;;;17.73;100.00;100890.34;4970539;28;20194;-70
2023/07/29 07:25:36;;;;;;;5.10;3.07;;;;;;;17.78;100.00;100901.34;4972712;28;20194;-70
2023/07/29 07:28:02;;;;;;;3.97;2.77;;;;;;;17.74;100.00;100843.19;4975418;28;20997;-70
2023/07/29 07:30:27;;;;;;;5.10;2.53;;;;;;;18.45;100.00;100927.66;4982928;28;20190;-71
2023/07/29 07:32:52;;;;;;;4.73;2.10;;;;;;;18.47;100.00;100925.50;4975769;28;20204;-70
2023/07/29 07:35:18;;;;;;;3.53;2.50;;;;;;;18.20;100.00;100906.38;4976487;28;20571;-69
2023/07/29 07:37:44;;;;;;;6.30;2.77;;;;;;;18.09;100.00;100869.28;4970052;28;20214;-69
2023/07/29 07:40:10;;;;;;;2.53;1.97;;;;;;;17.88;100.00;100846.41;4974747;28;20190;-69
2023/07/29 07:42:35;;;;;;;3.37;2.67;;;;;;;18.17;100.00;100899.53;4973703;28;20325;-68
2023/07/29 07:45:01;;;;;;;3.77;2.40;;;;;;;18.53;100.00;100881.06;4971509;28;20201;-69
2023/07/29 07:47:26;;;;;;;5.00;2.50;;;;;;;18.60;100.00;100870.00;4975303;28;20217;-69
2023/07/29 07:49:52;;;;;;;6.87;3.47;;;;;;;18.19;100.00;100881.09;4974083;28;20224;-69
2023/07/29 07:52:18;;;;;;;6.80;2.67;;;;;;;18.20;100.00;100877.34;4970261;28;20214;-70
2023/07/29 07:54:43;;;;;;;3.50;2.57;;;;;;;18.41;100.00;100870.31;4982150;28;20244;-69
2023/07/29 07:57:09;;;;;;;9.03;3.17;;;;;;;18.24;100.00;100854.03;4975840;28;20483;-69
2023/07/29 07:59:34;;;;;;;5.33;3.20;;;;;;;18.41;100.00;100859.44;4975646;28;20194;-69
2023/07/29 08:02:00;;;;;;;4.37;2.70;;;;;;;18.37;100.00;100809.44;4974135;28;20656;-69
2023/07/29 08:04:25;;;;;;;4.37;2.67;;;;;;;18.51;100.00;100823.44;4970213;28;20666;-69
2023/07/29 08:06:50;;;;;;;5.47;3.17;;;;;;;18.49;100.00;100850.03;4968722;28;20197;-69
2023/07/29 08:09:16;;;;;;;3.93;2.63;;;;;;;18.31;100.00;100788.69;4980589;28;20189;-68
2023/07/29 08:11:41;;;;;;;3.50;2.40;;;;;;;18.52;100.00;100830.53;4973869;28;20233;-69
2023/07/29 08:14:07;;;;;;;3.20;2.20;;;;;;;18.67;100.00;100843.47;4971239;28;20190;-68
2023/07/29 08:16:32;;;;;;;4.57;2.73;;;;;;;18.44;100.00;100837.22;4972210;28;20727;-68
2023/07/29 08:18:58;;;;;;;6.77;3.30;;;;;;;18.27;100.00;100801.13;4972753;28;20234;-69
2023/07/29 08:21:23;;;;;;;8.97;2.60;;;;;;;18.64;100.00;100833.94;4974630;28;20323;-69
2023/07/29 08:23:49;;;;;;;6.13;3.10;;;;;;;18.52;100.00;100819.66;4975743;28;20201;-68
2023/07/29 08:26:14;;;;;;;5.47;2.33;;;;;;;18.74;100.00;100844.94;4975516;28;20240;-69
2023/07/29 08:28:40;;;;;;;3.40;2.40;;;;;;;18.57;100.00;100789.81;4975344;28;20213;-69
2023/07/29 08:31:06;;;;;;;5.00;2.50;;;;;;;19.16;100.00;100828.03;4981398;28;20213;-68
2023/07/29 08:33:33;;;;;;;4.70;2.20;;;;;;;19.13;100.00;100831.28;4971158;28;21605;-69
2023/07/29 08:35:59;;;;;;;6.67;2.60;;;;;;;18.94;100.00;100786.47;4969968;28;20984;-68
2023/07/29 08:38:25;;;;;;;7.17;2.30;;;;;;;19.16;100.00;100800.84;4956829;28;20471;-68
2023/07/29 08:40:58;;;;;;;5.20;2.13;;;;;;;19.39;100.00;100794.28;4974363;28;20309;-69
2023/07/29 08:43:30;;;;;;;4.10;2.00;;;;;;;19.28;100.00;100770.78;4975120;28;20672;-68
2023/07/29 08:45:57;;;;;;;4.20;2.30;;;;;;;19.09;100.00;100732.28;4969211;28;20502;-69
2023/07/29 08:48:31;;;;;;;5.17;2.43;;;;;;;19.34;100.00;100761.59;4971526;28;20591;-69
2023/07/29 08:51:00;;;;;;;3.93;1.97;;;;;;;19.48;100.00;100753.00;4965568;28;20548;-68
2023/07/29 08:53:27;;;;;;;4.40;2.23;;;;;;;19.27;100.00;100719.38;4972262;28;20963;-68
2023/07/29 08:55:55;;;;;;;2.80;2.10;;;;;;;19.20;100.00;100728.56;4974181;28;20605;-69
2023/07/29 08:58:22;;;;;;;3.90;2.17;;;;;;;19.06;100.00;100683.84;4971680;28;20831;-69
2023/07/29 09:00:49;;;;;;;4.90;2.10;;;;;;;19.36;100.00;100734.16;4972421;28;20467;-75
2023/07/29 09:03:14;;;;;;;4.10;2.40;;;;;;;19.49;100.00;100709.19;4970904;28;20886;-69
2023/07/29 09:05:40;;;;;;;5.30;2.33;;;;;;;19.39;100.00;100714.59;4970712;28;20453;-69
2023/07/29 09:08:06;;;;;;;4.17;2.07;;;;;;;19.07;100.00;100663.75;4974632;28;20229;-68
2023/07/29 09:10:36;;;;;;;4.70;2.20;;;;;;;18.74;100.00;100578.69;4975703;28;20245;-69
2023/07/29 09:13:03;;;;;;;4.47;2.00;;;;;;;19.61;100.00;100690.81;4991781;28;20440;-70
2023/07/29 09:15:29;;;;;;;4.83;2.50;;;;;;;19.67;100.00;100683.50;4975164;28;20927;-69
2023/07/29 09:17:57;;;;;;;6.80;2.80;;;;;;;19.82;100.00;100680.06;4975750;28;20492;-68
2023/07/29 09:20:27;;;;;;;3.87;2.27;;;;;;;19.70;100.00;100639.47;4974017;28;20947;-71
2023/07/29 09:22:54;;;;;;;3.77;2.67;;;;;;;19.57;100.00;100653.50;4968327;28;20529;-69
2023/07/29 09:25:27;;;;;;;3.67;2.20;;;;;;;19.78;100.00;100640.84;4971356;28;20600;-69
2023/07/29 09:27:59;;;;;;;4.17;2.40;;;;;;;18.99;100.00;100516.66;4964985;28;20642;-69
2023/07/29 09:30:25;;;;;;;4.67;2.30;;;;;;;19.24;100.00;100541.28;4969251;28;20473;-69
2023/07/29 09:32:57;;;;;;;5.50;2.10;;;;;;;19.37;100.00;100538.06;4969406;28;20889;-69
2023/07/29 09:35:23;;;;;;;3.70;1.93;;;;;;;19.85;100.00;100593.25;4969919;28;20189;-69
2023/07/29 09:37:51;;;;;;;3.53;2.13;;;;;;;19.96;100.00;100585.97;4967339;28;20460;-69
2023/07/29 09:40:18;;;;;;;3.27;1.87;;;;;;;19.97;100.00;100549.47;4968202;28;20460;-69
2023/07/29 09:42:49;;;;;;;4.80;2.40;;;;;;;19.90;100.00;100535.28;4968076;28;21524;-69
2023/07/29 09:45:26;;;;;;;5.50;2.20;;;;;;;20.02;100.00;100538.59;4971636;28;20448;-69
2023/07/29 09:47:53;;;;;;;5.53;2.10;;;;;;;20.17;100.00;100537.00;4963910;28;20504;-69
2023/07/29 09:50:23;;;;;;;4.67;2.00;;;;;;;19.87;100.00;100500.44;4964600;28;20715;-69
2023/07/29 09:52:50;;;;;;;4.40;2.13;;;;;;;20.03;100.00;100499.41;4968346;28;20500;-69
2023/07/29 09:55:19;;;;;;;3.27;1.70;;;;;;;20.31;100.00;100505.44;4964130;28;20449;-69
2023/07/29 09:57:44;;;;;;;3.50;1.73;;;;;;;20.65;100.00;100516.59;4961675;28;20496;-69
2023/07/29 10:00:13;;;;;;;3.07;1.70;;;;;;;20.37;100.00;100484.47;4974539;28;20529;-68
2023/07/29 10:02:41;;;;;;;5.47;2.13;;;;;;;20.81;100.00;100492.88;4968492;28;20194;-69
2023/07/29 10:05:08;;;;;;;4.30;2.00;;;;;;;20.61;100.00;100477.38;4965567;28;20452;-68
2023/07/29 10:07:36;;;;;;;3.60;2.13;;;;;;;20.72;100.00;100475.47;4969235;28;20507;-69
2023/07/29 10:10:02;;;;;;;3.97;2.00;;;;;;;20.54;100.00;100479.59;4966084;28;20987;-69
2023/07/29 10:12:30;;;;;;;5.93;1.93;;;;;;;20.24;100.00;100439.50;4971409;28;20480;-69
2023/07/29 10:14:59;;;;;;;3.00;1.50;;;;;;;20.39;100.00;100453.09;4974472;28;20434;-70
2023/07/29 10:17:26;;;;;;;4.80;2.03;;;;;;;20.15;100.00;100444.69;4969427;28;20547;-69
2023/07/29 10:19:52;;;;;;;4.40;2.20;;;;;;;20.05;100.00;100417.47;4969162;28;20512;-69
2023/07/29 10:22:20;;;;;;;5.53;1.80;;;;;;;20.33;100.00;100449.56;4972392;28;20437;-70
2023/07/29 10:24:48;;;;;;;2.80;1.50;;;;;;;20.48;100.00;100445.19;4968367;28;20467;-68
2023/07/29 10:27:18;;;;;;;2.97;1.80;;;;;;;20.48;100.00;100448.78;4973389;28;20487;-68
2023/07/29 10:29:45;;;;;;;4.93;2.00;;;;;;;20.66;100.00;100438.41;4975917;28;20445;-68
2023/07/29 10:32:11;;;;;;;3.87;1.80;;;;;;;20.68;100.00;100436.22;4970727;28;20847;-67
2023/07/29 10:34:37;;;;;;;5.50;1.77;;;;;;;20.80;100.00;100436.75;4971563;28;20434;-67
2023/07/29 10:37:03;;;;;;;4.27;1.77;;;;;;;20.67;100.00;100435.41;4972666;28;20542;-67
2023/07/29 10:39:38;;;;;;;5.23;1.87;;;;;;;20.90;100.00;100414.91;4967770;28;20530;-67
2023/07/29 10:42:06;;;;;;;3.50;1.67;;;;;;;20.78;100.00;100408.94;4970056;28;20433;-67
2023/07/29 10:44:41;;;;;;;8.17;1.70;;;;;;;20.91;100.00;100402.88;4975000;28;20440;-68
2023/07/29 10:47:27;;;;;;;3.33;1.90;;;;;;;20.73;100.00;100368.06;4971696;28;20830;-68
2023/07/29 10:49:57;;;;;;;3.53;1.70;;;;;;;20.75;100.00;100325.03;4979585;28;20426;-68
2023/07/29 10:52:35;;;;;;;3.00;1.70;;;;;;;21.40;100.00;100346.78;4973775;28;20473;-68
2023/07/29 10:55:03;;;;;;;3.17;1.70;;;;;;;21.42;100.00;100320.84;4986791;28;20496;-67
2023/07/29 10:57:40;;;;;;;4.27;1.40;;;;;;;21.34;100.00;100264.13;4974191;28;20504;-68
2023/07/29 11:00:08;;;;;;;3.80;1.47;;;;;;;21.48;100.00;100225.31;4978219;28;20560;-67
2023/07/29 11:02:37;;;;;;;1.93;1.07;;;;;;;21.37;100.00;100205.50;4977598;28;20430;-67
2023/07/29 11:05:17;;;;;;;3.23;1.40;;;;;;;21.55;100.00;100185.69;4977336;28;20445;-68
2023/07/29 11:07:44;;;;;;;3.13;1.40;;;;;;;21.26;100.00;100139.28;4979183;28;20448;-68
2023/07/29 11:10:11;;;;;;;7.07;1.50;;;;;;;21.74;100.00;100125.72;4993142;28;20951;-68
2023/07/29 11:12:36;;;;;;;3.13;1.20;;;;;;;21.67;100.00;100060.56;4979422;28;21240;-68
2023/07/29 11:15:04;;;;;;;2.63;1.07;;;;;;;21.90;100.00;100055.38;4978967;28;20432;-68